PRMJR SBDB-SBLO
Flight info
| Callsign | PRMJR |
|---|---|
| Flight time | 0h 49m |
| Altitude | 41000 |
| Route | ANLAT DCT KABEG DCT KAGID |
| Aircraft | C700/M-SBDGHM1RWXY/LB2 |
Departure
| Time | 2026-04-28 21:46 |
|---|---|
| Airport | Bonito Airport (SBDB) |
Arrival
| Time | 2026-04-28 22:35 |
|---|---|
| Airport | Governor José Richa Airport (SBLO) |
| Time | Latitude | Longitude | Altitude | Speed | Heading |
|---|---|---|---|---|---|
| 2026-04-28 21:33 | -21.24359 | -56.45062 | 1098 ft | 0 kts | 76° |
| 2026-04-28 21:36 | -21.24361 | -56.45074 | 1095 ft | 2 kts | 96° |
| 2026-04-28 21:37 | -21.24353 | -56.45088 | 1096 ft | 2 kts | 154° |
| 2026-04-28 21:37 | -21.24348 | -56.45090 | 1098 ft | 0 kts | 160° |
| 2026-04-28 21:39 | -21.24351 | -56.45089 | 1098 ft | 3 kts | 160° |
| 2026-04-28 21:40 | -21.24389 | -56.45113 | 1095 ft | 11 kts | 233° |
| 2026-04-28 21:40 | -21.24418 | -56.45217 | 1097 ft | 13 kts | 256° |
| 2026-04-28 21:40 | -21.24422 | -56.45233 | 1097 ft | 0 kts | 256° |
| 2026-04-28 21:40 | -21.24422 | -56.45234 | 1097 ft | 0 kts | 256° |
| 2026-04-28 21:41 | -21.24431 | -56.45274 | 1094 ft | 11 kts | 256° |
| 2026-04-28 21:41 | -21.24516 | -56.45299 | 1095 ft | 19 kts | 168° |
| 2026-04-28 21:41 | -21.24653 | -56.45262 | 1094 ft | 21 kts | 167° |
| 2026-04-28 21:41 | -21.24799 | -56.45223 | 1096 ft | 20 kts | 163° |
| 2026-04-28 21:42 | -21.24938 | -56.45187 | 1096 ft | 22 kts | 168° |
| 2026-04-28 21:42 | -21.25089 | -56.45147 | 1098 ft | 23 kts | 166° |
| 2026-04-28 21:42 | -21.25229 | -56.45111 | 1099 ft | 19 kts | 166° |
| 2026-04-28 21:42 | -21.25362 | -56.45076 | 1100 ft | 20 kts | 166° |
| 2026-04-28 21:43 | -21.25461 | -56.45050 | 1100 ft | 15 kts | 166° |
| 2026-04-28 21:43 | -21.25563 | -56.45011 | 1100 ft | 17 kts | 143° |
| 2026-04-28 21:43 | -21.25593 | -56.45012 | 1097 ft | 2 kts | 295° |
| 2026-04-28 21:43 | -21.25567 | -56.45023 | 1100 ft | 3 kts | 347° |
| 2026-04-28 21:45 | -21.25327 | -56.45085 | 1100 ft | 78 kts | 346° |
| 2026-04-28 21:45 | -21.24546 | -56.45283 | 1151 ft | 145 kts | 348° |
| 2026-04-28 21:46 | -21.23483 | -56.45514 | 1712 ft | 166 kts | 347° |
| 2026-04-28 21:46 | -21.22304 | -56.45799 | 2454 ft | 186 kts | 345° |
| 2026-04-28 21:46 | -21.20982 | -56.46224 | 3135 ft | 207 kts | 339° |
| 2026-04-28 21:46 | -21.19602 | -56.46647 | 4213 ft | 208 kts | 353° |
| 2026-04-28 21:47 | -21.18206 | -56.46182 | 5278 ft | 229 kts | 38° |
| 2026-04-28 21:47 | -21.17352 | -56.44646 | 6325 ft | 261 kts | 75° |
| 2026-04-28 21:47 | -21.17517 | -56.42628 | 7347 ft | 288 kts | 111° |
| 2026-04-28 21:47 | -21.18765 | -56.40939 | 8729 ft | 296 kts | 140° |
| 2026-04-28 21:48 | -21.20459 | -56.39619 | 10040 ft | 306 kts | 145° |
| 2026-04-28 21:48 | -21.22205 | -56.38177 | 10975 ft | 330 kts | 139° |
| 2026-04-28 21:48 | -21.23833 | -56.36334 | 12012 ft | 346 kts | 129° |
| 2026-04-28 21:48 | -21.25351 | -56.34288 | 13340 ft | 355 kts | 129° |
| 2026-04-28 21:49 | -21.26964 | -56.32237 | 14468 ft | 364 kts | 133° |
| 2026-04-28 21:49 | -21.28709 | -56.30237 | 15637 ft | 370 kts | 134° |
| 2026-04-28 21:49 | -21.30434 | -56.28219 | 16765 ft | 376 kts | 133° |
| 2026-04-28 21:49 | -21.32169 | -56.26089 | 17898 ft | 382 kts | 132° |
| 2026-04-28 21:50 | -21.33943 | -56.23927 | 18891 ft | 389 kts | 133° |
| 2026-04-28 21:50 | -21.35766 | -56.21751 | 19841 ft | 395 kts | 133° |
| 2026-04-28 21:50 | -21.37614 | -56.19540 | 20774 ft | 401 kts | 133° |
| 2026-04-28 21:50 | -21.39480 | -56.17285 | 21706 ft | 407 kts | 132° |
| 2026-04-28 21:51 | -21.41374 | -56.14995 | 22624 ft | 413 kts | 133° |
| 2026-04-28 21:51 | -21.43302 | -56.12674 | 23513 ft | 419 kts | 133° |
| 2026-04-28 21:51 | -21.45258 | -56.10318 | 24240 ft | 426 kts | 133° |
| 2026-04-28 21:51 | -21.47244 | -56.07920 | 24947 ft | 432 kts | 133° |
| 2026-04-28 21:52 | -21.49257 | -56.05489 | 25662 ft | 439 kts | 133° |
| 2026-04-28 21:52 | -21.51299 | -56.03023 | 26378 ft | 445 kts | 133° |
| 2026-04-28 21:52 | -21.53374 | -56.00517 | 27070 ft | 452 kts | 133° |
| 2026-04-28 21:52 | -21.55471 | -55.97981 | 27766 ft | 458 kts | 133° |
| 2026-04-28 21:53 | -21.57597 | -55.95410 | 28432 ft | 464 kts | 133° |
| 2026-04-28 21:53 | -21.59756 | -55.92797 | 29088 ft | 470 kts | 133° |
| 2026-04-28 21:53 | -21.61940 | -55.90154 | 29757 ft | 476 kts | 133° |
| 2026-04-28 21:53 | -21.64150 | -55.87476 | 30369 ft | 482 kts | 133° |
| 2026-04-28 21:54 | -21.66386 | -55.84767 | 30944 ft | 487 kts | 133° |
| 2026-04-28 21:54 | -21.68649 | -55.82023 | 31508 ft | 492 kts | 134° |
| 2026-04-28 21:54 | -21.70926 | -55.79261 | 32042 ft | 497 kts | 134° |
| 2026-04-28 21:54 | -21.73236 | -55.76458 | 32557 ft | 502 kts | 134° |
| 2026-04-28 21:55 | -21.75561 | -55.73633 | 33066 ft | 506 kts | 134° |
| 2026-04-28 21:55 | -21.77869 | -55.70828 | 33708 ft | 506 kts | 135° |
| 2026-04-28 21:55 | -21.80201 | -55.67992 | 34357 ft | 505 kts | 135° |
| 2026-04-28 21:55 | -21.82535 | -55.65155 | 34974 ft | 505 kts | 134° |
| 2026-04-28 21:56 | -21.84856 | -55.62330 | 35618 ft | 504 kts | 134° |
| 2026-04-28 21:56 | -21.87177 | -55.59502 | 36251 ft | 503 kts | 134° |
| 2026-04-28 21:56 | -21.89492 | -55.56683 | 36847 ft | 502 kts | 134° |
| 2026-04-28 21:56 | -21.91801 | -55.53869 | 37403 ft | 501 kts | 134° |
| 2026-04-28 21:57 | -21.94106 | -55.51058 | 37921 ft | 501 kts | 134° |
| 2026-04-28 21:57 | -21.96410 | -55.48246 | 38415 ft | 500 kts | 134° |
| 2026-04-28 21:57 | -21.98709 | -55.45440 | 38835 ft | 500 kts | 134° |
| 2026-04-28 21:57 | -22.00960 | -55.42590 | 39193 ft | 500 kts | 129° |
| 2026-04-28 21:58 | -22.02986 | -55.39537 | 39544 ft | 500 kts | 127° |
| 2026-04-28 21:58 | -22.04993 | -55.36483 | 39875 ft | 499 kts | 127° |
| 2026-04-28 21:58 | -22.07027 | -55.33445 | 40183 ft | 499 kts | 128° |
| 2026-04-28 21:58 | -22.09061 | -55.30417 | 40487 ft | 498 kts | 128° |
| 2026-04-28 21:59 | -22.11076 | -55.27379 | 40771 ft | 498 kts | 127° |
| 2026-04-28 21:59 | -22.13086 | -55.24336 | 40983 ft | 499 kts | 128° |
| 2026-04-28 22:00 | -22.19270 | -55.15037 | 40991 ft | 517 kts | 128° |
| 2026-04-28 22:00 | -22.23497 | -55.08655 | 40996 ft | 528 kts | 128° |
| 2026-04-28 22:01 | -22.27814 | -55.02140 | 40998 ft | 538 kts | 127° |
| 2026-04-28 22:01 | -22.32200 | -54.95504 | 41000 ft | 546 kts | 127° |
| 2026-04-28 22:02 | -22.36604 | -54.88836 | 41003 ft | 542 kts | 127° |
| 2026-04-28 22:02 | -22.40896 | -54.82329 | 40999 ft | 528 kts | 127° |
| 2026-04-28 22:03 | -22.45164 | -54.75856 | 40995 ft | 531 kts | 127° |
| 2026-04-28 22:03 | -22.49463 | -54.69320 | 40998 ft | 535 kts | 127° |
| 2026-04-28 22:04 | -22.53442 | -54.62547 | 40994 ft | 534 kts | 115° |
| 2026-04-28 22:04 | -22.55623 | -54.54925 | 40985 ft | 530 kts | 97° |
| 2026-04-28 22:05 | -22.56445 | -54.46989 | 40990 ft | 531 kts | 94° |
| 2026-04-28 22:05 | -22.57255 | -54.39019 | 40993 ft | 534 kts | 94° |
| 2026-04-28 22:06 | -22.58048 | -54.31038 | 41002 ft | 533 kts | 94° |
| 2026-04-28 22:06 | -22.58842 | -54.23093 | 41007 ft | 529 kts | 94° |
| 2026-04-28 22:07 | -22.59619 | -54.15227 | 40999 ft | 529 kts | 94° |
| 2026-04-28 22:07 | -22.60403 | -54.07283 | 40997 ft | 532 kts | 94° |
| 2026-04-28 22:07 | -22.60795 | -54.03282 | 40707 ft | 538 kts | 94° |
| 2026-04-28 22:08 | -22.61189 | -53.99254 | 40237 ft | 536 kts | 94° |
| 2026-04-28 22:08 | -22.61581 | -53.95263 | 39746 ft | 529 kts | 94° |
| 2026-04-28 22:08 | -22.61964 | -53.91328 | 39260 ft | 522 kts | 93° |
| 2026-04-28 22:08 | -22.62340 | -53.87450 | 38780 ft | 516 kts | 93° |
| 2026-04-28 22:09 | -22.62711 | -53.83605 | 38266 ft | 512 kts | 93° |
| 2026-04-28 22:09 | -22.63081 | -53.79779 | 37787 ft | 512 kts | 93° |
| 2026-04-28 22:09 | -22.63452 | -53.75920 | 37320 ft | 521 kts | 93° |
| 2026-04-28 22:09 | -22.63829 | -53.71993 | 36854 ft | 527 kts | 94° |
| 2026-04-28 22:10 | -22.64210 | -53.68042 | 36379 ft | 528 kts | 94° |
| 2026-04-28 22:10 | -22.64588 | -53.64093 | 35895 ft | 527 kts | 94° |
| 2026-04-28 22:10 | -22.64964 | -53.60152 | 35415 ft | 526 kts | 94° |
| 2026-04-28 22:10 | -22.65338 | -53.56217 | 34932 ft | 525 kts | 94° |
| 2026-04-28 22:11 | -22.65711 | -53.52283 | 34456 ft | 525 kts | 94° |
| 2026-04-28 22:11 | -22.66084 | -53.48345 | 33966 ft | 527 kts | 94° |
| 2026-04-28 22:11 | -22.66458 | -53.44389 | 33451 ft | 528 kts | 94° |
| 2026-04-28 22:11 | -22.66830 | -53.40437 | 32969 ft | 528 kts | 94° |
| 2026-04-28 22:12 | -22.67202 | -53.36474 | 32484 ft | 529 kts | 94° |
| 2026-04-28 22:12 | -22.67573 | -53.32509 | 32002 ft | 529 kts | 94° |
| 2026-04-28 22:12 | -22.67944 | -53.28543 | 31514 ft | 529 kts | 93° |
| 2026-04-28 22:12 | -22.68312 | -53.24590 | 31037 ft | 529 kts | 93° |
| 2026-04-28 22:13 | -22.68680 | -53.20628 | 30550 ft | 528 kts | 93° |
| 2026-04-28 22:13 | -22.69047 | -53.16673 | 30065 ft | 528 kts | 93° |
| 2026-04-28 22:13 | -22.69412 | -53.12729 | 29536 ft | 522 kts | 93° |
| 2026-04-28 22:13 | -22.69766 | -53.08895 | 29064 ft | 514 kts | 93° |
| 2026-04-28 22:14 | -22.70119 | -53.05055 | 28595 ft | 508 kts | 93° |
| 2026-04-28 22:14 | -22.70465 | -53.01263 | 28130 ft | 504 kts | 93° |
| 2026-04-28 22:14 | -22.70809 | -52.97493 | 27666 ft | 501 kts | 93° |
| 2026-04-28 22:14 | -22.71151 | -52.93746 | 27215 ft | 499 kts | 93° |
| 2026-04-28 22:15 | -22.71491 | -52.90022 | 26761 ft | 495 kts | 93° |
| 2026-04-28 22:15 | -22.71826 | -52.86336 | 26308 ft | 489 kts | 93° |
| 2026-04-28 22:15 | -22.72156 | -52.82684 | 25865 ft | 484 kts | 93° |
| 2026-04-28 22:15 | -22.72481 | -52.79075 | 25422 ft | 479 kts | 93° |
| 2026-04-28 22:16 | -22.72802 | -52.75506 | 24986 ft | 475 kts | 93° |
| 2026-04-28 22:16 | -22.73121 | -52.71961 | 24557 ft | 471 kts | 93° |
| 2026-04-28 22:16 | -22.73435 | -52.68450 | 24128 ft | 467 kts | 93° |
| 2026-04-28 22:16 | -22.73747 | -52.64958 | 23703 ft | 463 kts | 93° |
| 2026-04-28 22:17 | -22.74056 | -52.61501 | 23239 ft | 459 kts | 93° |
| 2026-04-28 22:17 | -22.74360 | -52.58077 | 22813 ft | 455 kts | 93° |
| 2026-04-28 22:17 | -22.74662 | -52.54670 | 22398 ft | 454 kts | 93° |
| 2026-04-28 22:17 | -22.74962 | -52.51264 | 21987 ft | 454 kts | 93° |
| 2026-04-28 22:18 | -22.75263 | -52.47871 | 21574 ft | 452 kts | 93° |
| 2026-04-28 22:18 | -22.75561 | -52.44496 | 21165 ft | 449 kts | 93° |
| 2026-04-28 22:18 | -22.75855 | -52.41142 | 20760 ft | 446 kts | 93° |
| 2026-04-28 22:18 | -22.76143 | -52.37853 | 20361 ft | 443 kts | 93° |
| 2026-04-28 22:19 | -22.76433 | -52.34536 | 19956 ft | 441 kts | 93° |
| 2026-04-28 22:19 | -22.76721 | -52.31245 | 19560 ft | 438 kts | 93° |
| 2026-04-28 22:19 | -22.77006 | -52.27962 | 19162 ft | 436 kts | 93° |
| 2026-04-28 22:19 | -22.77289 | -52.24702 | 18769 ft | 434 kts | 93° |
| 2026-04-28 22:20 | -22.77569 | -52.21454 | 18374 ft | 432 kts | 94° |
| 2026-04-28 22:20 | -22.77850 | -52.18227 | 17948 ft | 428 kts | 93° |
| 2026-04-28 22:20 | -22.78125 | -52.15024 | 17549 ft | 424 kts | 93° |
| 2026-04-28 22:20 | -22.78397 | -52.11860 | 17164 ft | 420 kts | 93° |
| 2026-04-28 22:21 | -22.78667 | -52.08724 | 16784 ft | 416 kts | 93° |
| 2026-04-28 22:21 | -22.78932 | -52.05613 | 16406 ft | 413 kts | 93° |
| 2026-04-28 22:21 | -22.79196 | -52.02526 | 16033 ft | 410 kts | 93° |
| 2026-04-28 22:21 | -22.79456 | -51.99460 | 15667 ft | 407 kts | 93° |
| 2026-04-28 22:22 | -22.79717 | -51.96414 | 15299 ft | 405 kts | 93° |
| 2026-04-28 22:22 | -22.79973 | -51.93387 | 14929 ft | 402 kts | 93° |
| 2026-04-28 22:22 | -22.80226 | -51.90377 | 14567 ft | 400 kts | 93° |
| 2026-04-28 22:22 | -22.80480 | -51.87374 | 14204 ft | 397 kts | 93° |
| 2026-04-28 22:23 | -22.80732 | -51.84399 | 13840 ft | 394 kts | 93° |
| 2026-04-28 22:23 | -22.81156 | -51.81473 | 13447 ft | 393 kts | 103° |
| 2026-04-28 22:23 | -22.82093 | -51.78700 | 13083 ft | 391 kts | 114° |
| 2026-04-28 22:23 | -22.83479 | -51.76175 | 12731 ft | 390 kts | 126° |
| 2026-04-28 22:24 | -22.84619 | -51.74679 | 12498 ft | 389 kts | 133° |
| 2026-04-28 22:24 | -22.86600 | -51.72755 | 12160 ft | 369 kts | 142° |
| 2026-04-28 22:24 | -22.88492 | -51.71100 | 11837 ft | 343 kts | 141° |
| 2026-04-28 22:24 | -22.90309 | -51.69488 | 11533 ft | 330 kts | 141° |
| 2026-04-28 22:25 | -22.92061 | -51.67939 | 11235 ft | 319 kts | 142° |
| 2026-04-28 22:25 | -22.93764 | -51.66441 | 10953 ft | 314 kts | 142° |
| 2026-04-28 22:25 | -22.95465 | -51.64942 | 10665 ft | 315 kts | 142° |
| 2026-04-28 22:25 | -22.97170 | -51.63433 | 10387 ft | 317 kts | 142° |
| 2026-04-28 22:26 | -22.98881 | -51.61920 | 10104 ft | 317 kts | 142° |
| 2026-04-28 22:26 | -23.00591 | -51.60410 | 9805 ft | 315 kts | 142° |
| 2026-04-28 22:26 | -23.02281 | -51.58916 | 9507 ft | 312 kts | 141° |
| 2026-04-28 22:26 | -23.03957 | -51.57432 | 9219 ft | 309 kts | 141° |
| 2026-04-28 22:27 | -23.05616 | -51.55965 | 8939 ft | 306 kts | 141° |
| 2026-04-28 22:27 | -23.07268 | -51.54503 | 8660 ft | 306 kts | 141° |
| 2026-04-28 22:27 | -23.08916 | -51.53043 | 8387 ft | 306 kts | 141° |
| 2026-04-28 22:27 | -23.10564 | -51.51584 | 8108 ft | 305 kts | 141° |
| 2026-04-28 22:28 | -23.12204 | -51.50131 | 7831 ft | 304 kts | 141° |
| 2026-04-28 22:28 | -23.14368 | -51.48213 | 7469 ft | 301 kts | 141° |
| 2026-04-28 22:28 | -23.15443 | -51.47259 | 7287 ft | 300 kts | 141° |
| 2026-04-28 22:28 | -23.17057 | -51.45828 | 7014 ft | 299 kts | 141° |
| 2026-04-28 22:29 | -23.18663 | -51.44402 | 6745 ft | 297 kts | 141° |
| 2026-04-28 22:29 | -23.20262 | -51.42985 | 6480 ft | 296 kts | 141° |
| 2026-04-28 22:29 | -23.21846 | -51.41578 | 6167 ft | 290 kts | 141° |
| 2026-04-28 22:29 | -23.23356 | -51.40228 | 5885 ft | 271 kts | 139° |
| 2026-04-28 22:30 | -23.24535 | -51.38715 | 5625 ft | 256 kts | 121° |
| 2026-04-28 22:30 | -23.25287 | -51.37017 | 5399 ft | 244 kts | 108° |
| 2026-04-28 22:30 | -23.25837 | -51.35322 | 5179 ft | 232 kts | 109° |
| 2026-04-28 22:30 | -23.26399 | -51.33709 | 4968 ft | 225 kts | 109° |
| 2026-04-28 22:31 | -23.26940 | -51.32118 | 4766 ft | 224 kts | 109° |
| 2026-04-28 22:31 | -23.27473 | -51.30527 | 4565 ft | 225 kts | 109° |
| 2026-04-28 22:31 | -23.28007 | -51.28945 | 4365 ft | 225 kts | 109° |
| 2026-04-28 22:31 | -23.28530 | -51.27384 | 4182 ft | 210 kts | 109° |
| 2026-04-28 22:32 | -23.29015 | -51.25953 | 3993 ft | 194 kts | 109° |
| 2026-04-28 22:32 | -23.29455 | -51.24637 | 3800 ft | 174 kts | 110° |
| 2026-04-28 22:32 | -23.29860 | -51.23438 | 3671 ft | 168 kts | 110° |
| 2026-04-28 22:32 | -23.30272 | -51.22206 | 3477 ft | 176 kts | 110° |
| 2026-04-28 22:33 | -23.30688 | -51.20974 | 3261 ft | 175 kts | 110° |
| 2026-04-28 22:33 | -23.31099 | -51.19749 | 3062 ft | 162 kts | 110° |
| 2026-04-28 22:33 | -23.31474 | -51.18636 | 2840 ft | 154 kts | 110° |
| 2026-04-28 22:33 | -23.31835 | -51.17558 | 2641 ft | 146 kts | 110° |
| 2026-04-28 22:34 | -23.32174 | -51.16550 | 2453 ft | 138 kts | 110° |
| 2026-04-28 22:34 | -23.32496 | -51.15586 | 2256 ft | 133 kts | 109° |
| 2026-04-28 22:34 | -23.32802 | -51.14636 | 2084 ft | 132 kts | 110° |
| 2026-04-28 22:34 | -23.33129 | -51.13702 | 1897 ft | 132 kts | 110° |
| 2026-04-28 22:35 | -23.33416 | -51.12839 | 1874 ft | 106 kts | 109° |
| 2026-04-28 22:35 | -23.33608 | -51.12262 | 1873 ft | 61 kts | 110° |
| 2026-04-28 22:35 | -23.33655 | -51.12151 | 1873 ft | 2 kts | 97° |
| 2026-04-28 22:35 | -23.33647 | -51.12151 | 1873 ft | 1 kts | 336° |
| 2026-04-28 22:36 | -23.33632 | -51.12189 | 1873 ft | 11 kts | 289° |
| 2026-04-28 22:36 | -23.33596 | -51.12297 | 1873 ft | 19 kts | 290° |
| 2026-04-28 22:36 | -23.33543 | -51.12435 | 1874 ft | 20 kts | 311° |
| 2026-04-28 22:36 | -23.33436 | -51.12530 | 1872 ft | 17 kts | 317° |
| 2026-04-28 22:37 | -23.33380 | -51.12644 | 1873 ft | 18 kts | 290° |
| 2026-04-28 22:37 | -23.33340 | -51.12760 | 1873 ft | 17 kts | 290° |
| 2026-04-28 22:37 | -23.33307 | -51.12861 | 1873 ft | 13 kts | 289° |
| 2026-04-28 22:37 | -23.33274 | -51.12963 | 1873 ft | 15 kts | 289° |
| 2026-04-28 22:38 | -23.33234 | -51.13081 | 1873 ft | 18 kts | 290° |
| 2026-04-28 22:38 | -23.33189 | -51.13212 | 1873 ft | 19 kts | 290° |
| 2026-04-28 22:38 | -23.33143 | -51.13353 | 1873 ft | 21 kts | 289° |
| 2026-04-28 22:38 | -23.33098 | -51.13487 | 1873 ft | 16 kts | 290° |
| 2026-04-28 22:39 | -23.33058 | -51.13605 | 1873 ft | 15 kts | 290° |
| 2026-04-28 22:39 | -23.33031 | -51.13688 | 1873 ft | 9 kts | 289° |
| 2026-04-28 22:39 | -23.33004 | -51.13705 | 1873 ft | 5 kts | 20° |
| 2026-04-28 22:39 | -23.32965 | -51.13688 | 1873 ft | 7 kts | 21° |
| 2026-04-28 22:40 | -23.32961 | -51.13687 | 1873 ft | 0 kts | 21° |